| Date | Time | Temp. (oF) | Dew Point (oF) | Rel. Hum. (%) | Press. (in.) | Wind Dir. | Wind Speed (mph) | Hourly Rainfall (in.) |
|
|---|---|---|---|---|---|---|---|---|---|
| 1 | 01/15 | 00:00 | 38 | 33 | 85 | 30.18 | NNE | 3 | 0.00 |
| 2 | 01/14 | 23:00 | 38 | 33 | 83 | 30.19 | NE | 3 | 0.00 |
| 3 | 01/14 | 22:00 | 38 | 32 | 80 | 30.20 | ESE | 0 | 0.00 |
| 4 | 01/14 | 21:00 | 37 | 31 | 81 | 30.21 | NNE | 3 | 0.00 |
| 5 | 01/14 | 20:00 | 37 | 31 | 79 | 30.22 | SSE | 1 | 0.00 |
| 6 | 01/14 | 19:00 | 38 | 31 | 78 | 30.22 | E | 0 | 0.00 |
| 7 | 01/14 | 18:00 | 39 | 31 | 73 | 30.24 | SSW | 2 | 0.00 |
| 8 | 01/14 | 17:00 | 41 | 31 | 68 | 30.22 | SE | 1 | 0.00 |
| 9 | 01/14 | 16:00 | 42 | 31 | 65 | 30.21 | E | 3 | 0.00 |
| 10 | 01/14 | 15:00 | 43 | 30 | 62 | 30.25 | S | 3 | 0.00 |
| 11 | 01/14 | 14:00 | 42 | 30 | 64 | 30.22 | S | 3 | 0.00 |
| 12 | 01/14 | 13:00 | 41 | 31 | 68 | 30.25 | SSE | 2 | 0.00 |
| 13 | 01/14 | 12:00 | 38 | 31 | 76 | 30.28 | E | 1 | 0.00 |
| 14 | 01/14 | 11:00 | 34 | 29 | 83 | 30.31 | NE | 1 | 0.00 |
| 15 | 01/14 | 10:00 | 31 | 27 | 87 | 30.32 | SE | 0 | 0.00 |
| 16 | 01/14 | 09:00 | 27 | 24 | 89 | 30.31 | N | 0 | 0.00 |
| 17 | 01/14 | 08:00 | 25 | 21 | 88 | 30.31 | NNW | 0 | 0.00 |
| 18 | 01/14 | 07:00 | 23 | 19 | 88 | 30.32 | NNW | 0 | 0.00 |
| 19 | 01/14 | 06:00 | 26 | 21 | 84 | 30.32 | NNW | 0 | 0.00 |
| 20 | 01/14 | 05:00 | 24 | 20 | 86 | 30.30 | NNE | 0 | 0.00 |
| 21 | 01/14 | 04:00 | 26 | 22 | 85 | 30.31 | N | 0 | 0.00 |
| 22 | 01/14 | 03:00 | 27 | 22 | 83 | 30.32 | NNE | 0 | 0.00 |
| 23 | 01/14 | 02:00 | 27 | 22 | 84 | 30.32 | NNE | 0 | 0.00 |
| 24 | 01/14 | 01:00 | 29 | 24 | 82 | 30.32 | NNW | 1 | 0.00 |